Current Weather

Chicago Executive

Wheeling, Illinois (KPWK)

Report from: Friday, February 3, 2023 10:52 PM CST
Current time: Friday, February 3, 2023 11:15 PM CST

Nearby weather
Weather history
Weather forecast

Temperature-11.7°C (10.9°F)
Wind chill-17.7°C (0.2°F)
Dew point-20.0°C (-4.0°F)
Winds 6 kts (3.1 m/s, 6.9 mph) South (170°)
Visibility10 mi. (16.1 km)
Clouds Ceiling: Broken clouds 6,000 ft. (1,829 m)
Altimeter30.48 in.Hg (1032 mB)
Relative humidity50 %
Density altitude-3,974 ft. (-1,211 m)
Sea-level pressure103.4 kPa (1034 mB, 30.53 in.Hg)
Remarks Fully automated report
Automated weather observing station with precipitation discriminator
Flight conditions Visual Meteorological Conditions
Raw dataKPWK 040452Z AUTO 17006KT 10SM BKN060 M12/M20 A3048 RMK AO2 SLP337 T11171200
An unhandled exception has occurred. See browser dev tools for details. Reload 🗙